createdAt,value
2022-12-20T00:00:00.226Z,3.80
2022-12-20T00:03:06.291Z,4.07
2022-12-20T00:06:14.616Z,3.23
2022-12-20T00:09:20.859Z,4.17
2022-12-20T00:12:27.553Z,4.30
2022-12-20T00:15:34.328Z,3.77
2022-12-20T00:18:41.899Z,3.90
2022-12-20T00:21:49.898Z,4.37
2022-12-20T00:24:56.050Z,3.40
2022-12-20T00:28:03.309Z,4.00
2022-12-20T00:31:11.364Z,3.97
2022-12-20T00:34:17.511Z,5.40
2022-12-20T00:37:25.004Z,3.10
2022-12-20T00:40:31.355Z,4.00
2022-12-20T00:43:38.178Z,2.90
2022-12-20T00:46:44.843Z,3.70
2022-12-20T00:49:50.989Z,3.33
2022-12-20T00:52:58.646Z,4.00
2022-12-20T00:56:06.687Z,3.17
2022-12-20T00:59:13.179Z,3.00
2022-12-20T01:02:19.842Z,3.33
2022-12-20T01:05:26.166Z,4.43
2022-12-20T01:08:34.475Z,3.40
2022-12-20T01:11:41.152Z,3.47
2022-12-20T01:14:47.642Z,3.30
2022-12-20T01:17:54.082Z,3.87
2022-12-20T01:21:04.940Z,4.17
2022-12-20T01:24:13.074Z,4.10
2022-12-20T01:27:19.487Z,5.50
2022-12-20T01:30:25.987Z,5.67
2022-12-20T01:33:32.303Z,5.70
2022-12-20T01:36:39.602Z,5.40
2022-12-20T01:39:47.585Z,6.60
2022-12-20T01:42:53.871Z,7.50
2022-12-20T01:46:00.595Z,7.10
2022-12-20T01:49:12.022Z,7.80
2022-12-20T01:52:21.775Z,5.77
2022-12-20T01:55:30.228Z,4.87
2022-12-20T01:58:39.420Z,7.27
2022-12-20T02:01:46.456Z,4.93
2022-12-20T02:04:53.036Z,4.43
2022-12-20T02:07:59.124Z,6.37
2022-12-20T02:11:17.163Z,4.47
2022-12-20T02:14:36.939Z,4.47
2022-12-20T02:17:52.158Z,4.43
2022-12-20T02:21:21.001Z,4.47
2022-12-20T02:25:02.228Z,3.97
2022-12-20T02:28:26.214Z,3.60
2022-12-20T02:31:40.082Z,4.50
2022-12-20T02:34:47.164Z,3.70
2022-12-20T02:37:55.620Z,3.60
2022-12-20T02:41:07.643Z,5.07
2022-12-20T02:44:33.565Z,3.63
2022-12-20T02:47:47.898Z,3.50
2022-12-20T02:50:58.028Z,8.63
2022-12-20T02:54:04.622Z,10.30
2022-12-20T02:57:15.733Z,7.47
2022-12-20T03:00:24.550Z,5.93
2022-12-20T03:03:33.637Z,3.93
2022-12-20T03:06:40.959Z,3.07
2022-12-20T03:09:47.572Z,4.00
2022-12-20T03:12:53.997Z,3.93
2022-12-20T03:16:00.280Z,3.10
2022-12-20T03:19:07.734Z,3.00
2022-12-20T03:22:14.183Z,4.00
2022-12-20T03:25:20.263Z,4.97
2022-12-20T03:28:26.668Z,4.00
2022-12-20T03:31:33.108Z,5.27
2022-12-20T03:34:41.180Z,4.83
2022-12-20T03:37:47.565Z,5.83
2022-12-20T03:40:53.822Z,4.70
2022-12-20T03:44:00.264Z,5.80
2022-12-20T03:47:06.686Z,4.40
2022-12-20T03:50:15.435Z,4.67
2022-12-20T03:53:21.675Z,3.47
2022-12-20T03:56:27.785Z,4.67
2022-12-20T03:59:34.238Z,6.60
2022-12-20T04:02:41.182Z,24.43
2022-12-20T04:05:49.353Z,34.13
2022-12-20T04:08:55.814Z,40.07
2022-12-20T04:12:03.042Z,24.90
2022-12-20T04:15:10.318Z,19.40
2022-12-20T04:18:16.617Z,11.77
2022-12-20T04:21:26.651Z,8.70
2022-12-20T04:24:33.301Z,8.37
2022-12-20T04:27:39.510Z,18.40
2022-12-20T04:30:45.763Z,12.13
2022-12-20T04:33:51.932Z,3.17
2022-12-20T04:36:59.471Z,4.23
2022-12-20T04:40:06.232Z,3.70
2022-12-20T04:43:12.680Z,3.77
2022-12-20T04:46:19.882Z,4.63
2022-12-20T04:49:26.382Z,4.97
2022-12-20T04:52:51.406Z,5.23
2022-12-20T04:55:57.582Z,5.27
2022-12-20T04:59:04.276Z,6.63
2022-12-20T05:02:10.573Z,5.10
2022-12-20T05:05:17.106Z,8.33
2022-12-20T05:08:25.524Z,11.03
2022-12-20T05:11:32.158Z,10.40
2022-12-20T05:14:38.688Z,9.67
2022-12-20T05:17:44.957Z,11.13
2022-12-20T05:21:12.751Z,10.67
2022-12-20T05:24:37.794Z,9.30
2022-12-20T05:27:44.084Z,8.77
2022-12-20T05:30:50.398Z,8.87
2022-12-20T05:33:56.605Z,9.07
2022-12-20T05:37:03.159Z,10.20
2022-12-20T05:40:11.859Z,7.40
2022-12-20T05:43:18.843Z,6.93
2022-12-20T05:46:25.397Z,12.23
2022-12-20T05:49:31.734Z,9.73
2022-12-20T05:52:38.245Z,12.50
2022-12-20T05:55:48.701Z,12.47
2022-12-20T05:58:54.857Z,14.53
2022-12-20T06:02:01.383Z,12.60
2022-12-20T06:05:08.140Z,16.30
2022-12-20T06:08:15.394Z,15.50
2022-12-20T06:11:29.645Z,17.20
2022-12-20T06:14:36.354Z,12.97
2022-12-20T06:18:00.852Z,11.70
2022-12-20T06:21:07.593Z,10.63
2022-12-20T06:24:14.298Z,7.63
2022-12-20T06:27:23.109Z,10.27
2022-12-20T06:30:33.843Z,7.57
2022-12-20T06:33:40.297Z,7.97
2022-12-20T06:36:46.941Z,10.80
2022-12-20T06:39:53.240Z,13.33
2022-12-20T06:43:00.678Z,10.97
2022-12-20T06:46:07.392Z,10.53
2022-12-20T06:49:13.880Z,16.67
2022-12-20T06:52:19.969Z,20.07
2022-12-20T06:55:26.434Z,32.47
2022-12-20T06:58:34.375Z,41.93
2022-12-20T07:01:41.014Z,26.37
2022-12-20T07:04:47.338Z,21.50
2022-12-20T07:07:53.681Z,17.67
2022-12-20T07:11:05.614Z,17.63
2022-12-20T07:14:13.615Z,14.27
2022-12-20T07:17:19.919Z,14.53
2022-12-20T07:20:26.075Z,16.30
2022-12-20T07:23:32.496Z,14.10
2022-12-20T07:26:39.091Z,14.73
2022-12-20T07:29:46.827Z,15.97
2022-12-20T07:32:53.099Z,14.27
2022-12-20T07:36:02.444Z,7.57
2022-12-20T07:39:09.285Z,8.10
2022-12-20T07:42:15.693Z,6.47
2022-12-20T07:45:23.471Z,9.63
2022-12-20T07:48:29.887Z,8.83
2022-12-20T07:51:39.522Z,8.40
2022-12-20T07:54:50.752Z,8.70
2022-12-20T07:58:03.084Z,9.67
2022-12-20T08:01:12.745Z,8.87
2022-12-20T08:04:22.328Z,8.23
2022-12-20T08:07:29.575Z,8.63
2022-12-20T08:10:36.450Z,7.10
2022-12-20T08:13:46.538Z,5.83
2022-12-20T08:16:55.479Z,5.23
2022-12-20T08:20:03.642Z,5.80
2022-12-20T08:23:10.039Z,5.27
2022-12-20T08:26:16.515Z,7.03
2022-12-20T08:29:22.685Z,5.90
2022-12-20T08:32:30.713Z,6.73
2022-12-20T08:35:37.139Z,7.40
2022-12-20T08:38:43.510Z,5.20
2022-12-20T08:41:50.546Z,6.00
2022-12-20T08:44:56.596Z,6.90
2022-12-20T08:48:04.725Z,6.80
2022-12-20T08:51:12.702Z,7.23
2022-12-20T08:54:19.348Z,6.83
2022-12-20T08:57:25.691Z,6.40
2022-12-20T09:00:32.023Z,5.83
2022-12-20T09:03:40.559Z,7.30
2022-12-20T09:06:47.061Z,4.33
2022-12-20T09:09:53.174Z,6.90
2022-12-20T09:12:59.189Z,6.13
2022-12-20T09:16:07.635Z,6.50
2022-12-20T09:19:16.040Z,7.73
2022-12-20T09:22:22.425Z,7.00
2022-12-20T09:25:29.793Z,6.47
2022-12-20T09:28:36.457Z,8.03
2022-12-20T09:31:42.969Z,8.07
2022-12-20T09:34:51.411Z,5.83
2022-12-20T09:37:58.332Z,5.80
2022-12-20T09:41:08.261Z,5.93
2022-12-20T09:44:19.479Z,5.47
2022-12-20T09:47:26.638Z,6.97
2022-12-20T09:50:44.921Z,5.47
2022-12-20T09:54:02.611Z,5.97
2022-12-20T09:57:22.048Z,3.73
2022-12-20T10:00:28.411Z,3.47
2022-12-20T10:03:37.307Z,4.27
2022-12-20T10:06:55.739Z,5.07
2022-12-20T10:10:23.045Z,4.53
2022-12-20T10:13:48.017Z,4.70
2022-12-20T10:16:59.930Z,5.63
2022-12-20T10:20:23.934Z,5.10
2022-12-20T10:23:38.775Z,6.67
2022-12-20T10:26:45.034Z,5.87
2022-12-20T10:29:53.072Z,5.83
2022-12-20T10:33:00.135Z,5.90
2022-12-20T10:36:20.663Z,4.67
2022-12-20T10:39:42.909Z,4.77
2022-12-20T10:42:49.241Z,4.90
2022-12-20T10:46:02.084Z,4.33
2022-12-20T10:49:31.393Z,5.73
2022-12-20T10:52:37.833Z,4.90
2022-12-20T10:55:45.671Z,5.93
2022-12-20T10:58:57.943Z,3.90
2022-12-20T11:02:21.428Z,3.73
2022-12-20T11:05:28.213Z,3.10
2022-12-20T11:08:40.766Z,2.93
2022-12-20T11:12:01.623Z,2.27
2022-12-20T11:15:20.555Z,6.27
2022-12-20T11:18:46.864Z,4.23
2022-12-20T11:22:04.865Z,5.13
2022-12-20T11:25:42.019Z,5.60
2022-12-20T11:29:07.629Z,4.77
2022-12-20T11:32:30.206Z,4.73
2022-12-20T11:35:46.806Z,4.43
2022-12-20T11:39:00.249Z,2.30
2022-12-20T11:42:14.945Z,2.53
2022-12-20T11:45:31.531Z,2.90
2022-12-20T11:48:53.162Z,3.23
2022-12-20T11:52:07.259Z,2.70
2022-12-20T11:55:21.822Z,2.90
2022-12-20T11:58:33.922Z,2.97
2022-12-20T12:01:46.116Z,2.70
2022-12-20T12:04:58.118Z,2.57
2022-12-20T12:08:13.465Z,2.77
2022-12-20T12:15:00.023Z,4.50
2022-12-20T12:18:12.998Z,4.93
2022-12-20T12:21:24.276Z,3.27
2022-12-20T12:24:34.738Z,6.10
2022-12-20T12:27:40.987Z,5.60
2022-12-20T12:30:50.223Z,7.27
2022-12-20T12:34:13.304Z,5.30
2022-12-20T12:37:44.622Z,3.43
2022-12-20T12:41:31.307Z,2.90
2022-12-20T12:44:43.909Z,2.87
2022-12-20T12:47:53.822Z,3.80
2022-12-20T12:51:03.327Z,3.13
2022-12-20T12:54:23.539Z,2.07
2022-12-20T12:57:29.569Z,2.17
2022-12-20T13:00:52.670Z,3.43
2022-12-20T13:04:23.616Z,3.00
2022-12-20T13:07:43.893Z,3.53
2022-12-20T13:11:02.852Z,2.17
2022-12-20T13:14:48.519Z,5.33
2022-12-20T13:17:56.194Z,4.83
2022-12-20T13:21:33.503Z,4.17
2022-12-20T13:24:53.717Z,3.00
2022-12-20T13:28:33.099Z,3.77
2022-12-20T13:31:39.445Z,4.53
2022-12-20T13:34:56.927Z,2.73
2022-12-20T13:38:06.215Z,3.23
2022-12-20T13:41:31.095Z,3.80
2022-12-20T13:44:46.728Z,3.90
2022-12-20T13:47:57.418Z,10.60
2022-12-20T13:51:04.114Z,8.30
2022-12-20T13:54:25.051Z,16.93
2022-12-20T13:57:42.219Z,12.73
2022-12-20T14:00:49.914Z,13.33
2022-12-20T14:03:56.709Z,10.83
2022-12-20T14:07:03.985Z,15.33
2022-12-20T14:10:20.943Z,13.00
2022-12-20T14:13:29.328Z,35.97
2022-12-20T14:16:35.708Z,35.73
2022-12-20T14:19:41.735Z,26.30
2022-12-20T14:23:02.573Z,24.50
2022-12-20T14:26:14.313Z,18.67
2022-12-20T14:29:27.212Z,17.80
2022-12-20T14:32:33.768Z,22.37
2022-12-20T14:35:48.476Z,22.83
2022-12-20T14:38:55.128Z,18.50
2022-12-20T14:42:03.962Z,19.70
2022-12-20T14:45:21.480Z,23.53
2022-12-20T14:48:28.007Z,37.30
2022-12-20T14:51:35.319Z,30.80
2022-12-20T14:58:26.053Z,19.00
2022-12-20T15:01:38.387Z,54.80
2022-12-20T15:04:52.585Z,26.70
2022-12-20T15:08:11.707Z,23.60
2022-12-20T15:11:23.027Z,30.50
2022-12-20T15:14:40.982Z,33.67
2022-12-20T15:17:48.851Z,19.80
2022-12-20T15:21:03.014Z,19.33
2022-12-20T15:24:13.660Z,22.33
2022-12-20T15:27:20.291Z,26.83
2022-12-20T15:30:26.953Z,20.33
2022-12-20T15:33:36.556Z,24.73
2022-12-20T15:36:42.904Z,26.70
2022-12-20T15:39:48.850Z,26.07
2022-12-20T15:42:55.444Z,35.80
2022-12-20T15:46:01.746Z,33.40
2022-12-20T15:49:13.667Z,28.50
2022-12-20T15:52:22.049Z,20.77
2022-12-20T15:55:28.274Z,23.37
2022-12-20T15:58:34.683Z,23.23
2022-12-20T16:01:41.485Z,16.43
2022-12-20T16:04:50.629Z,21.03
2022-12-20T16:07:57.135Z,18.67
2022-12-20T16:11:03.563Z,19.80
2022-12-20T16:14:16.754Z,24.20
2022-12-20T16:17:23.169Z,23.33
2022-12-20T16:20:30.826Z,22.00
2022-12-20T16:23:37.137Z,24.83
2022-12-20T16:26:43.518Z,30.30
2022-12-20T16:29:49.571Z,40.07
2022-12-20T16:32:58.907Z,39.23
2022-12-20T16:36:07.138Z,39.80
2022-12-20T16:39:13.474Z,30.33
2022-12-20T16:42:22.402Z,25.30
2022-12-20T16:45:30.966Z,26.50
2022-12-20T16:48:37.569Z,18.80
2022-12-20T16:51:47.209Z,19.23
2022-12-20T16:54:53.871Z,18.30
2022-12-20T16:58:00.352Z,17.23
2022-12-20T17:01:11.353Z,17.10
2022-12-20T17:04:21.560Z,19.27
2022-12-20T17:07:29.178Z,23.83
2022-12-20T17:10:35.312Z,31.23
2022-12-20T17:13:41.381Z,31.70
2022-12-20T17:16:47.445Z,27.43
2022-12-20T17:19:53.855Z,21.57
2022-12-20T17:23:01.645Z,16.93
2022-12-20T17:26:07.964Z,18.23
2022-12-20T17:29:14.910Z,18.60
2022-12-20T17:32:23.170Z,22.27
2022-12-20T17:35:32.151Z,32.20
2022-12-20T17:38:39.673Z,46.00
2022-12-20T17:41:46.724Z,39.93
2022-12-20T17:44:52.912Z,37.10
2022-12-20T17:48:00.140Z,42.67
2022-12-20T17:51:16.084Z,48.23
2022-12-20T17:54:26.854Z,44.87
2022-12-20T17:57:33.595Z,32.33
2022-12-20T18:00:39.888Z,14.93
2022-12-20T18:04:03.550Z,14.53
2022-12-20T18:07:11.096Z,13.10
2022-12-20T18:10:18.865Z,22.87
2022-12-20T18:13:25.604Z,44.53
2022-12-20T18:16:35.142Z,37.30
2022-12-20T18:19:44.009Z,23.30
2022-12-20T18:22:50.364Z,28.70
2022-12-20T18:26:10.329Z,31.93
2022-12-20T18:29:16.740Z,22.77
2022-12-20T18:32:23.442Z,16.77
2022-12-20T18:35:30.472Z,16.70
2022-12-20T18:38:37.650Z,19.03
2022-12-20T18:41:45.323Z,27.63
2022-12-20T18:44:51.884Z,28.77
2022-12-20T18:47:58.171Z,30.80
2022-12-20T18:51:05.855Z,28.63
2022-12-20T18:54:14.123Z,40.93
2022-12-20T18:57:21.983Z,25.63
2022-12-20T19:00:28.807Z,24.43
2022-12-20T19:03:35.354Z,38.03
2022-12-20T19:06:42.036Z,31.40
2022-12-20T19:09:48.296Z,51.20
2022-12-20T19:12:59.376Z,40.37
2022-12-20T19:16:10.077Z,41.97
2022-12-20T19:19:16.458Z,46.97
2022-12-20T19:22:22.698Z,66.07
2022-12-20T19:25:28.779Z,37.83
2022-12-20T19:32:01.372Z,19.93
2022-12-20T19:35:45.059Z,15.33
2022-12-20T19:38:34.310Z,24.63
2022-12-20T19:41:41.062Z,18.80
2022-12-20T19:44:49.034Z,24.33
2022-12-20T19:47:55.539Z,27.37
2022-12-20T19:51:05.623Z,34.33
2022-12-20T19:54:11.847Z,34.00
2022-12-20T19:57:17.939Z,39.30
2022-12-20T20:00:27.526Z,28.77
2022-12-20T20:03:33.858Z,33.73
2022-12-20T20:06:40.235Z,32.97
2022-12-20T20:09:46.839Z,31.13
2022-12-20T20:12:52.982Z,34.13
2022-12-20T20:16:02.948Z,41.53
2022-12-20T20:19:09.811Z,29.90
2022-12-20T20:22:21.011Z,28.10
2022-12-20T20:25:29.079Z,27.43
2022-12-20T20:28:43.741Z,32.60
2022-12-20T20:31:52.370Z,28.13
2022-12-20T20:34:58.597Z,28.57
2022-12-20T20:38:04.907Z,33.17
2022-12-20T20:41:11.019Z,38.77
2022-12-20T20:44:17.577Z,30.00
2022-12-20T20:47:25.507Z,26.00
2022-12-20T20:50:32.209Z,35.40
2022-12-20T21:04:14.460Z,31.47
2022-12-20T21:07:20.748Z,25.97
2022-12-20T21:10:27.291Z,24.57
2022-12-20T21:13:34.169Z,23.70
2022-12-20T21:16:41.829Z,36.83
2022-12-20T21:19:49.575Z,29.00
2022-12-20T21:22:57.464Z,25.07
2022-12-20T21:26:04.068Z,31.40
2022-12-20T21:29:10.716Z,29.80
2022-12-20T21:32:17.020Z,28.70
2022-12-20T21:35:24.891Z,22.97
2022-12-20T21:38:31.534Z,24.83
2022-12-20T21:41:37.542Z,23.73
2022-12-20T21:44:43.852Z,18.60
2022-12-20T21:47:50.191Z,18.10
2022-12-20T21:51:02.754Z,18.30
2022-12-20T21:54:09.138Z,19.90
2022-12-20T21:57:15.428Z,16.43
2022-12-20T22:00:23.213Z,20.83
2022-12-20T22:03:29.590Z,19.50
2022-12-20T22:06:37.129Z,20.73
2022-12-20T22:09:43.538Z,27.40
2022-12-20T22:12:49.812Z,21.40
2022-12-20T22:15:55.945Z,21.07
2022-12-20T22:19:03.680Z,21.50
2022-12-20T22:22:11.646Z,29.70
2022-12-20T22:25:17.897Z,28.70
2022-12-20T22:28:24.133Z,31.70
2022-12-20T22:31:30.678Z,39.10
2022-12-20T22:34:36.584Z,32.77
2022-12-20T22:37:44.191Z,23.53
2022-12-20T22:40:50.398Z,24.77
2022-12-20T22:43:58.435Z,24.47
2022-12-20T22:47:04.447Z,21.37
2022-12-20T22:50:11.770Z,17.90
2022-12-20T22:53:19.293Z,18.90
2022-12-20T22:56:25.723Z,17.87
2022-12-20T22:59:32.657Z,23.80
2022-12-20T23:02:39.030Z,23.80
2022-12-20T23:05:53.481Z,10.60
2022-12-20T23:09:00.841Z,9.57
2022-12-20T23:12:24.368Z,8.70
2022-12-20T23:15:42.920Z,12.10
2022-12-20T23:18:48.977Z,16.77
2022-12-20T23:22:12.643Z,17.70
2022-12-20T23:25:21.725Z,18.93
2022-12-20T23:28:28.074Z,14.93
2022-12-20T23:31:35.495Z,19.27
2022-12-20T23:34:41.866Z,16.80
2022-12-20T23:37:48.900Z,32.33
2022-12-20T23:40:56.781Z,16.90
2022-12-20T23:44:05.067Z,12.17
2022-12-20T23:47:17.137Z,12.50
2022-12-20T23:50:24.908Z,11.33
2022-12-20T23:53:31.438Z,10.23
2022-12-20T23:56:39.261Z,12.40
2022-12-20T23:59:45.746Z,14.03
